TimeCST,TemperatureF,Dew PointF,Humidity,Sea Level PressureIn,VisibilityMPH,Wind Direction,Wind SpeedMPH,Gust SpeedMPH,PrecipitationIn,Events,Conditions,WindDirDegrees,DateUTC
12:42 AM,28.0,27.0,96,29.70,2.5,South,15.0,-,N/A,,Overcast,170,2014-01-10 06:42:00
12:54 AM,28.0,27.0,96,29.75,1.8,South,12.7,-,N/A,,Overcast,170,2014-01-10 06:54:00
1:18 AM,28.9,28.0,96,29.67,0.8,South,15.0,-,N/A,,Mist,180,2014-01-10 07:18:00
1:50 AM,28.4,28.4,100,29.65,1.0,South,12.7,-,N/A,,Mist,170,2014-01-10 07:50:00
1:54 AM,30.0,28.9,96,29.70,1.0,South,13.8,-,N/A,,Mist,180,2014-01-10 07:54:00
2:39 AM,30.0,28.9,96,29.63,2.0,South,12.7,-,N/A,,Overcast,190,2014-01-10 08:39:00
2:51 AM,30.2,28.4,93,29.63,1.2,South,13.8,-,N/A,,Overcast,190,2014-01-10 08:51:00
2:54 AM,30.0,28.9,96,29.68,1.2,South,12.7,-,N/A,,Overcast,190,2014-01-10 08:54:00
3:29 AM,28.9,28.0,96,29.60,0.8,South,8.1,-,N/A,,Mist,180,2014-01-10 09:29:00
3:36 AM,28.0,28.0,100,29.60,1.5,South,6.9,-,N/A,,Overcast,170,2014-01-10 09:36:00
3:47 AM,28.0,27.0,96,29.60,2.0,South,8.1,-,N/A,,Mostly Cloudy,190,2014-01-10 09:47:00
3:54 AM,28.0,27.0,96,29.64,2.5,South,8.1,-,N/A,,Mostly Cloudy,190,2014-01-10 09:54:00
3:59 AM,27.0,26.1,96,29.59,3.0,South,10.4,-,N/A,,Scattered Clouds,190,2014-01-10 09:59:00
4:54 AM,26.1,26.1,100,29.63,4.0,SW,6.9,-,N/A,,Clear,230,2014-01-10 10:54:00
5:54 AM,27.0,25.0,92,29.64,6.0,West,8.1,-,N/A,,Overcast,270,2014-01-10 11:54:00
6:54 AM,27.0,23.0,85,29.66,8.0,WNW,15.0,-,N/A,,Mostly Cloudy,300,2014-01-10 12:54:00
7:54 AM,28.0,24.1,85,29.72,7.0,NNW,21.9,-,N/A,,Clear,330,2014-01-10 13:54:00
8:54 AM,28.9,26.1,89,29.75,6.0,NNW,13.8,-,N/A,,Mostly Cloudy,340,2014-01-10 14:54:00
9:54 AM,32.0,28.0,85,29.75,7.0,NW,6.9,-,N/A,,Overcast,320,2014-01-10 15:54:00
10:54 AM,39.0,27.0,62,29.75,10.0,NW,11.5,-,N/A,,Clear,310,2014-01-10 16:54:00
11:54 AM,43.0,19.9,40,29.71,10.0,NW,18.4,29.9,N/A,,Clear,310,2014-01-10 17:54:00
12:54 PM,45.0,17.1,33,29.67,10.0,WNW,27.6,36.8,N/A,,Clear,300,2014-01-10 18:54:00
1:54 PM,45.0,21.0,39,29.65,10.0,NW,27.6,38.0,N/A,,Mostly Cloudy,320,2014-01-10 19:54:00
2:54 PM,43.0,26.1,51,29.66,10.0,NW,28.8,38.0,N/A,,Clear,310,2014-01-10 20:54:00
3:54 PM,43.0,28.0,56,29.68,10.0,NNW,21.9,33.4,N/A,,Mostly Cloudy,330,2014-01-10 21:54:00
4:54 PM,42.1,25.0,51,29.71,10.0,NNW,19.6,26.5,N/A,,Mostly Cloudy,330,2014-01-10 22:54:00
5:54 PM,32.0,25.0,75,29.75,10.0,NNW,9.2,-,N/A,,Clear,340,2014-01-10 23:54:00
6:54 PM,32.0,23.0,69,29.77,10.0,NW,9.2,-,N/A,,Clear,320,2014-01-11 00:54:00
7:54 PM,30.9,21.9,69,29.81,10.0,WNW,9.2,-,N/A,,Clear,290,2014-01-11 01:54:00
8:54 PM,28.9,21.9,75,29.83,10.0,West,10.4,-,N/A,,Clear,280,2014-01-11 02:54:00
9:54 PM,28.0,19.9,72,29.84,10.0,WNW,9.2,-,N/A,,Clear,300,2014-01-11 03:54:00
10:54 PM,28.9,21.0,72,29.85,10.0,WNW,10.4,-,N/A,,Clear,290,2014-01-11 04:54:00
11:54 PM,28.9,21.0,72,29.86,10.0,WNW,10.4,-,N/A,,Clear,290,2014-01-11 05:54:00